createdAt,value
2023-03-22T00:04:29.298Z,38.40
2023-03-22T00:09:34.068Z,32.05
2023-03-22T00:14:37.620Z,34.60
2023-03-22T00:19:42.219Z,36.05
2023-03-22T00:24:47.221Z,34.90
2023-03-22T00:29:52.571Z,41.05
2023-03-22T00:34:55.962Z,38.03
2023-03-22T00:40:00.727Z,47.95
2023-03-22T00:45:04.810Z,41.33
2023-03-22T00:50:11.147Z,47.00
2023-03-22T00:55:15.878Z,45.25
2023-03-22T01:00:20.164Z,36.40
2023-03-22T01:05:23.780Z,40.95
2023-03-22T01:10:28.701Z,41.80
2023-03-22T01:15:32.470Z,35.08
2023-03-22T01:20:36.631Z,32.70
2023-03-22T01:25:41.415Z,35.83
2023-03-22T01:30:44.867Z,35.45
2023-03-22T01:35:48.347Z,41.38
2023-03-22T01:40:53.224Z,41.92
2023-03-22T01:45:56.982Z,33.35
2023-03-22T01:51:05.217Z,36.03
2023-03-22T01:56:11.507Z,33.25
2023-03-22T02:01:16.119Z,33.08
2023-03-22T02:06:20.376Z,32.05
2023-03-22T02:11:31.677Z,34.63
2023-03-22T02:16:42.174Z,33.22
2023-03-22T02:22:25.924Z,38.38
2023-03-22T02:27:43.996Z,33.50
2023-03-22T02:33:17.407Z,33.95
2023-03-22T02:38:55.051Z,34.25
2023-03-22T02:44:08.029Z,32.15
2023-03-22T02:49:19.627Z,30.80
2023-03-22T02:54:28.751Z,32.47
2023-03-22T02:59:38.488Z,32.30
2023-03-22T03:04:46.358Z,28.70
2023-03-22T03:09:51.336Z,33.22
2023-03-22T03:14:56.348Z,31.95
2023-03-22T03:20:21.913Z,28.55
2023-03-22T03:25:29.338Z,30.50
2023-03-22T03:30:38.979Z,29.40
2023-03-22T03:35:48.705Z,34.17
2023-03-22T03:40:55.289Z,29.05
2023-03-22T03:46:01.111Z,30.95
2023-03-22T03:51:05.117Z,28.08
2023-03-22T03:56:09.472Z,29.90
2023-03-22T04:01:14.293Z,28.50
2023-03-22T04:06:18.080Z,28.80
2023-03-22T04:11:21.489Z,29.92
2023-03-22T04:16:26.886Z,28.02
2023-03-22T04:21:30.648Z,28.23
2023-03-22T04:26:34.561Z,30.35
2023-03-22T04:31:39.543Z,30.42
2023-03-22T04:36:42.970Z,32.00
2023-03-22T04:41:46.329Z,29.52
2023-03-22T04:46:51.148Z,29.88
2023-03-22T04:51:54.597Z,31.90
2023-03-22T04:56:58.244Z,32.65
2023-03-22T05:02:03.723Z,31.85
2023-03-22T05:07:07.110Z,31.45
2023-03-22T05:12:11.032Z,35.80
2023-03-22T05:17:16.604Z,33.10
2023-03-22T05:22:22.415Z,36.42
2023-03-22T05:27:31.732Z,39.83
2023-03-22T05:32:37.703Z,35.28
2023-03-22T05:37:41.558Z,33.47
2023-03-22T05:42:45.427Z,36.03
2023-03-22T05:47:50.582Z,31.85
2023-03-22T05:52:54.097Z,34.55
2023-03-22T05:57:57.984Z,34.20
2023-03-22T06:03:03.756Z,31.05
2023-03-22T06:08:07.281Z,33.90
2023-03-22T06:13:10.879Z,32.17
2023-03-22T06:18:15.859Z,33.45
2023-03-22T06:23:19.376Z,39.53
2023-03-22T06:28:22.857Z,34.15
2023-03-22T06:33:27.719Z,34.47
2023-03-22T06:38:31.214Z,31.48
2023-03-22T06:43:34.587Z,32.35
2023-03-22T06:48:39.318Z,33.72
2023-03-22T06:53:42.927Z,36.88
2023-03-22T06:58:46.608Z,34.22
2023-03-22T07:03:51.700Z,33.83
2023-03-22T07:08:55.531Z,35.05
2023-03-22T07:13:59.164Z,27.10
2023-03-22T07:19:04.740Z,34.75
2023-03-22T07:24:09.235Z,28.55
2023-03-22T07:29:12.707Z,29.75
2023-03-22T07:34:17.629Z,30.45
2023-03-22T07:39:21.253Z,29.23
2023-03-22T07:44:25.319Z,29.05
2023-03-22T07:49:31.209Z,27.35
2023-03-22T07:54:34.837Z,27.83
2023-03-22T07:59:40.095Z,25.20
2023-03-22T08:04:45.067Z,28.60
2023-03-22T08:09:49.541Z,29.52
2023-03-22T08:14:53.244Z,30.27
2023-03-22T08:19:58.417Z,26.90
2023-03-22T08:25:01.861Z,24.40
2023-03-22T08:30:06.765Z,28.85
2023-03-22T08:35:12.886Z,26.02
2023-03-22T08:40:16.457Z,24.55
2023-03-22T08:45:20.252Z,27.88
2023-03-22T08:50:25.104Z,21.45
2023-03-22T08:55:28.535Z,24.35
2023-03-22T09:00:47.406Z,25.40
2023-03-22T09:05:59.494Z,25.35
2023-03-22T09:11:05.650Z,23.98
2023-03-22T09:16:10.405Z,24.90
2023-03-22T09:21:17.398Z,23.58
2023-03-22T09:26:22.883Z,25.65
2023-03-22T09:31:27.675Z,24.50
2023-03-22T09:36:34.359Z,20.08
2023-03-22T09:41:41.446Z,20.98
2023-03-22T09:46:48.242Z,18.42
2023-03-22T09:51:54.850Z,23.15
2023-03-22T09:57:03.684Z,19.50
2023-03-22T10:02:32.742Z,20.88
2023-03-22T10:07:48.016Z,21.60
2023-03-22T10:12:59.992Z,18.42
2023-03-22T10:18:07.500Z,18.65
2023-03-22T10:23:17.913Z,19.45
2023-03-22T10:28:24.789Z,15.90
2023-03-22T10:33:36.769Z,19.90
2023-03-22T10:38:47.658Z,16.05
2023-03-22T10:43:54.695Z,16.33
2023-03-22T10:49:00.866Z,17.95
2023-03-22T10:54:06.117Z,14.60
2023-03-22T10:59:12.059Z,14.55
2023-03-22T11:04:17.427Z,14.43
2023-03-22T11:09:24.604Z,19.40
2023-03-22T11:14:31.955Z,17.33
2023-03-22T11:19:37.242Z,19.58
2023-03-22T11:24:42.655Z,15.10
2023-03-22T11:29:48.189Z,17.35
2023-03-22T11:35:01.548Z,15.38
2023-03-22T11:40:10.901Z,14.27
2023-03-22T11:45:17.149Z,16.08
2023-03-22T11:50:29.698Z,13.45
2023-03-22T11:55:36.624Z,17.42
2023-03-22T12:00:40.858Z,14.02
2023-03-22T12:05:47.545Z,13.50
2023-03-22T12:10:58.655Z,17.63
2023-03-22T12:16:06.046Z,13.00
2023-03-22T12:21:11.843Z,12.88
2023-03-22T12:26:21.656Z,12.60
2023-03-22T12:31:28.481Z,11.70
2023-03-22T12:36:39.101Z,9.13
2023-03-22T12:41:49.655Z,9.55
2023-03-22T12:46:57.634Z,8.10
2023-03-22T12:52:13.041Z,8.38
2023-03-22T12:57:18.471Z,7.40
2023-03-22T13:02:30.206Z,10.70
2023-03-22T13:07:52.538Z,7.03
2023-03-22T13:13:15.871Z,8.67
2023-03-22T13:18:33.470Z,8.05
2023-03-22T13:23:53.293Z,6.45
2023-03-22T13:29:01.311Z,4.70
2023-03-22T13:34:05.498Z,5.10
2023-03-22T13:39:12.472Z,11.07
2023-03-22T13:44:29.815Z,7.10
2023-03-22T13:49:50.012Z,6.70
2023-03-22T13:54:57.198Z,5.53
2023-03-22T14:00:14.926Z,6.65
2023-03-22T14:05:22.308Z,6.97
2023-03-22T14:10:28.205Z,10.68
2023-03-22T14:15:38.560Z,7.60
2023-03-22T14:20:42.535Z,3.35
